sensor_id;sensor_type;location;lat;lon;timestamp;P1;durP1;ratioP1;P2;durP2;ratioP2
44428;SDS011;30134;47.866;-4.222;2023-09-19T00:00:36;33.20;;;21.45;;
44428;SDS011;30134;47.866;-4.222;2023-09-19T00:03:03;29.40;;;19.70;;
44428;SDS011;30134;47.866;-4.222;2023-09-19T00:05:33;27.45;;;18.67;;
44428;SDS011;30134;47.866;-4.222;2023-09-19T00:08:01;25.80;;;17.38;;
44428;SDS011;30134;47.866;-4.222;2023-09-19T00:10:29;28.35;;;17.38;;
44428;SDS011;30134;47.866;-4.222;2023-09-19T00:12:56;23.35;;;16.42;;
44428;SDS011;30134;47.866;-4.222;2023-09-19T00:15:30;23.55;;;14.52;;
44428;SDS011;30134;47.866;-4.222;2023-09-19T00:18:05;22.75;;;14.73;;
44428;SDS011;30134;47.866;-4.222;2023-09-19T00:20:37;21.20;;;13.73;;
44428;SDS011;30134;47.866;-4.222;2023-09-19T00:23:04;19.60;;;13.02;;
44428;SDS011;30134;47.866;-4.222;2023-09-19T00:25:30;21.08;;;13.00;;
44428;SDS011;30134;47.866;-4.222;2023-09-19T00:28:00;20.42;;;12.15;;
44428;SDS011;30134;47.866;-4.222;2023-09-19T00:30:27;17.63;;;10.50;;
44428;SDS011;30134;47.866;-4.222;2023-09-19T00:32:53;19.08;;;11.52;;
44428;SDS011;30134;47.866;-4.222;2023-09-19T00:35:22;15.20;;;10.25;;
44428;SDS011;30134;47.866;-4.222;2023-09-19T00:37:52;14.98;;;9.65;;
44428;SDS011;30134;47.866;-4.222;2023-09-19T00:40:19;16.02;;;9.30;;
44428;SDS011;30134;47.866;-4.222;2023-09-19T00:42:46;14.20;;;8.75;;
44428;SDS011;30134;47.866;-4.222;2023-09-19T00:45:16;16.13;;;9.25;;
44428;SDS011;30134;47.866;-4.222;2023-09-19T00:47:49;15.45;;;8.30;;
44428;SDS011;30134;47.866;-4.222;2023-09-19T00:50:17;13.02;;;7.68;;
44428;SDS011;30134;47.866;-4.222;2023-09-19T00:52:47;14.90;;;7.63;;
44428;SDS011;30134;47.866;-4.222;2023-09-19T00:55:15;14.48;;;7.43;;
44428;SDS011;30134;47.866;-4.222;2023-09-19T00:57:44;13.63;;;6.75;;
44428;SDS011;30134;47.866;-4.222;2023-09-19T01:00:25;14.55;;;7.00;;
44428;SDS011;30134;47.866;-4.222;2023-09-19T01:02:51;10.85;;;5.95;;
44428;SDS011;30134;47.866;-4.222;2023-09-19T01:05:17;10.73;;;6.30;;
44428;SDS011;30134;47.866;-4.222;2023-09-19T01:07:44;11.25;;;6.20;;
44428;SDS011;30134;47.866;-4.222;2023-09-19T01:10:14;13.25;;;5.93;;
44428;SDS011;30134;47.866;-4.222;2023-09-19T01:21:27;8.90;;;4.68;;
44428;SDS011;30134;47.866;-4.222;2023-09-19T01:30:17;7.10;;;4.00;;
44428;SDS011;30134;47.866;-4.222;2023-09-19T01:32:52;6.30;;;3.80;;
44428;SDS011;30134;47.866;-4.222;2023-09-19T01:35:19;6.53;;;3.65;;
44428;SDS011;30134;47.866;-4.222;2023-09-19T01:37:45;8.55;;;3.78;;
44428;SDS011;30134;47.866;-4.222;2023-09-19T01:40:15;8.88;;;3.53;;
44428;SDS011;30134;47.866;-4.222;2023-09-19T01:48:54;8.35;;;3.70;;
44428;SDS011;30134;47.866;-4.222;2023-09-19T01:51:40;5.57;;;3.30;;
44428;SDS011;30134;47.866;-4.222;2023-09-19T01:54:32;8.57;;;3.35;;
44428;SDS011;30134;47.866;-4.222;2023-09-19T01:59:48;7.28;;;2.92;;
44428;SDS011;30134;47.866;-4.222;2023-09-19T02:02:24;7.25;;;3.15;;
44428;SDS011;30134;47.866;-4.222;2023-09-19T02:04:50;5.80;;;2.63;;
44428;SDS011;30134;47.866;-4.222;2023-09-19T02:07:17;5.93;;;2.72;;
44428;SDS011;30134;47.866;-4.222;2023-09-19T02:09:43;6.53;;;2.97;;
44428;SDS011;30134;47.866;-4.222;2023-09-19T02:12:09;6.88;;;2.80;;
44428;SDS011;30134;47.866;-4.222;2023-09-19T02:14:35;8.10;;;2.80;;
44428;SDS011;30134;47.866;-4.222;2023-09-19T02:17:02;6.85;;;2.85;;
44428;SDS011;30134;47.866;-4.222;2023-09-19T02:19:32;5.80;;;2.47;;
44428;SDS011;30134;47.866;-4.222;2023-09-19T02:22:04;8.60;;;2.88;;
44428;SDS011;30134;47.866;-4.222;2023-09-19T02:24:35;5.75;;;2.53;;
44428;SDS011;30134;47.866;-4.222;2023-09-19T02:27:03;7.70;;;2.63;;
44428;SDS011;30134;47.866;-4.222;2023-09-19T02:29:30;7.05;;;2.92;;
44428;SDS011;30134;47.866;-4.222;2023-09-19T02:31:59;5.65;;;2.28;;
44428;SDS011;30134;47.866;-4.222;2023-09-19T02:34:26;7.15;;;2.40;;
44428;SDS011;30134;47.866;-4.222;2023-09-19T02:36:52;4.70;;;2.10;;
44428;SDS011;30134;47.866;-4.222;2023-09-19T02:39:20;5.38;;;2.25;;
44428;SDS011;30134;47.866;-4.222;2023-09-19T02:41:46;6.82;;;2.72;;
44428;SDS011;30134;47.866;-4.222;2023-09-19T02:44:18;6.35;;;2.28;;
44428;SDS011;30134;47.866;-4.222;2023-09-19T02:46:45;9.43;;;4.88;;
44428;SDS011;30134;47.866;-4.222;2023-09-19T02:49:11;101.97;;;67.65;;
44428;SDS011;30134;47.866;-4.222;2023-09-19T02:51:39;75.97;;;50.17;;
44428;SDS011;30134;47.866;-4.222;2023-09-19T02:54:05;68.15;;;46.55;;
44428;SDS011;30134;47.866;-4.222;2023-09-19T02:56:32;76.80;;;50.75;;
44428;SDS011;30134;47.866;-4.222;2023-09-19T02:59:00;71.68;;;46.55;;
44428;SDS011;30134;47.866;-4.222;2023-09-19T03:01:27;62.42;;;42.65;;
44428;SDS011;30134;47.866;-4.222;2023-09-19T03:03:53;59.92;;;41.08;;
44428;SDS011;30134;47.866;-4.222;2023-09-19T03:06:20;59.40;;;40.75;;
44428;SDS011;30134;47.866;-4.222;2023-09-19T03:08:47;50.47;;;33.65;;
44428;SDS011;30134;47.866;-4.222;2023-09-19T03:11:16;52.58;;;35.75;;
44428;SDS011;30134;47.866;-4.222;2023-09-19T03:13:50;48.75;;;31.95;;
44428;SDS011;30134;47.866;-4.222;2023-09-19T03:16:19;43.67;;;30.00;;
44428;SDS011;30134;47.866;-4.222;2023-09-19T03:18:50;47.60;;;30.08;;
44428;SDS011;30134;47.866;-4.222;2023-09-19T03:21:16;40.85;;;27.67;;
44428;SDS011;30134;47.866;-4.222;2023-09-19T03:23:44;40.55;;;26.63;;
44428;SDS011;30134;47.866;-4.222;2023-09-19T03:26:11;40.13;;;25.83;;
44428;SDS011;30134;47.866;-4.222;2023-09-19T03:28:39;32.70;;;23.05;;
44428;SDS011;30134;47.866;-4.222;2023-09-19T03:31:06;34.83;;;22.63;;
44428;SDS011;30134;47.866;-4.222;2023-09-19T03:33:32;33.45;;;21.35;;
44428;SDS011;30134;47.866;-4.222;2023-09-19T03:35:59;32.33;;;20.88;;
44428;SDS011;30134;47.866;-4.222;2023-09-19T03:38:30;31.20;;;19.92;;
44428;SDS011;30134;47.866;-4.222;2023-09-19T03:40:57;27.60;;;18.75;;
44428;SDS011;30134;47.866;-4.222;2023-09-19T03:43:24;27.80;;;17.98;;
44428;SDS011;30134;47.866;-4.222;2023-09-19T03:45:50;25.10;;;16.63;;
44428;SDS011;30134;47.866;-4.222;2023-09-19T03:48:16;25.63;;;16.08;;
44428;SDS011;30134;47.866;-4.222;2023-09-19T03:50:42;25.40;;;15.13;;
44428;SDS011;30134;47.866;-4.222;2023-09-19T03:53:09;21.58;;;13.93;;
44428;SDS011;30134;47.866;-4.222;2023-09-19T03:55:35;20.58;;;13.82;;
44428;SDS011;30134;47.866;-4.222;2023-09-19T03:58:01;21.38;;;12.88;;
44428;SDS011;30134;47.866;-4.222;2023-09-19T04:00:29;17.88;;;11.85;;
44428;SDS011;30134;47.866;-4.222;2023-09-19T04:02:55;17.33;;;11.27;;
44428;SDS011;30134;47.866;-4.222;2023-09-19T04:05:22;18.85;;;10.98;;
44428;SDS011;30134;47.866;-4.222;2023-09-19T04:07:49;17.98;;;10.68;;
44428;SDS011;30134;47.866;-4.222;2023-09-19T04:10:15;17.42;;;10.27;;
44428;SDS011;30134;47.866;-4.222;2023-09-19T04:12:54;14.63;;;9.57;;
44428;SDS011;30134;47.866;-4.222;2023-09-19T04:15:21;14.98;;;9.02;;
44428;SDS011;30134;47.866;-4.222;2023-09-19T04:17:49;15.48;;;9.48;;
44428;SDS011;30134;47.866;-4.222;2023-09-19T04:20:16;15.07;;;9.23;;
44428;SDS011;30134;47.866;-4.222;2023-09-19T04:22:45;15.38;;;8.23;;
44428;SDS011;30134;47.866;-4.222;2023-09-19T04:25:12;15.00;;;8.23;;
44428;SDS011;30134;47.866;-4.222;2023-09-19T04:27:38;13.60;;;7.20;;
44428;SDS011;30134;47.866;-4.222;2023-09-19T04:30:05;12.48;;;7.10;;
44428;SDS011;30134;47.866;-4.222;2023-09-19T04:32:37;14.55;;;7.38;;
44428;SDS011;30134;47.866;-4.222;2023-09-19T04:35:09;11.48;;;6.10;;
44428;SDS011;30134;47.866;-4.222;2023-09-19T04:37:39;14.45;;;7.13;;
44428;SDS011;30134;47.866;-4.222;2023-09-19T04:40:09;12.15;;;6.05;;
44428;SDS011;30134;47.866;-4.222;2023-09-19T04:42:42;11.10;;;6.20;;
44428;SDS011;30134;47.866;-4.222;2023-09-19T04:45:18;9.02;;;5.32;;
44428;SDS011;30134;47.866;-4.222;2023-09-19T04:47:45;11.93;;;5.78;;
44428;SDS011;30134;47.866;-4.222;2023-09-19T04:50:11;9.07;;;5.03;;
44428;SDS011;30134;47.866;-4.222;2023-09-19T04:52:41;9.98;;;4.88;;
44428;SDS011;30134;47.866;-4.222;2023-09-19T04:55:15;9.40;;;4.60;;
44428;SDS011;30134;47.866;-4.222;2023-09-19T04:57:46;9.52;;;4.57;;
44428;SDS011;30134;47.866;-4.222;2023-09-19T05:00:15;9.43;;;4.28;;
44428;SDS011;30134;47.866;-4.222;2023-09-19T05:02:43;9.52;;;4.40;;
44428;SDS011;30134;47.866;-4.222;2023-09-19T05:05:10;12.27;;;4.95;;
44428;SDS011;30134;47.866;-4.222;2023-09-19T05:07:37;9.25;;;4.47;;
44428;SDS011;30134;47.866;-4.222;2023-09-19T05:10:06;8.85;;;3.88;;
44428;SDS011;30134;47.866;-4.222;2023-09-19T05:12:33;7.60;;;3.95;;
44428;SDS011;30134;47.866;-4.222;2023-09-19T05:15:01;7.63;;;3.55;;
44428;SDS011;30134;47.866;-4.222;2023-09-19T05:17:32;10.63;;;3.95;;
44428;SDS011;30134;47.866;-4.222;2023-09-19T05:19:59;9.50;;;3.60;;
44428;SDS011;30134;47.866;-4.222;2023-09-19T05:22:30;9.57;;;3.80;;
44428;SDS011;30134;47.866;-4.222;2023-09-19T05:24:57;9.55;;;3.60;;
44428;SDS011;30134;47.866;-4.222;2023-09-19T05:27:23;7.00;;;3.38;;
44428;SDS011;30134;47.866;-4.222;2023-09-19T05:29:49;7.90;;;3.80;;
44428;SDS011;30134;47.866;-4.222;2023-09-19T05:32:18;8.55;;;3.33;;
44428;SDS011;30134;47.866;-4.222;2023-09-19T05:34:45;8.82;;;3.20;;
44428;SDS011;30134;47.866;-4.222;2023-09-19T05:37:12;9.70;;;3.60;;
44428;SDS011;30134;47.866;-4.222;2023-09-19T05:39:41;6.35;;;2.85;;
44428;SDS011;30134;47.866;-4.222;2023-09-19T05:42:08;6.18;;;2.78;;
44428;SDS011;30134;47.866;-4.222;2023-09-19T05:44:34;8.95;;;3.10;;
44428;SDS011;30134;47.866;-4.222;2023-09-19T05:47:01;7.20;;;3.05;;
44428;SDS011;30134;47.866;-4.222;2023-09-19T05:49:30;15.00;;;3.15;;
44428;SDS011;30134;47.866;-4.222;2023-09-19T05:51:56;6.30;;;2.80;;
44428;SDS011;30134;47.866;-4.222;2023-09-19T05:54:24;7.97;;;3.20;;
44428;SDS011;30134;47.866;-4.222;2023-09-19T05:56:50;7.35;;;2.95;;
44428;SDS011;30134;47.866;-4.222;2023-09-19T05:59:18;8.32;;;3.10;;
44428;SDS011;30134;47.866;-4.222;2023-09-19T06:01:44;7.72;;;2.65;;
44428;SDS011;30134;47.866;-4.222;2023-09-19T06:04:12;7.88;;;3.10;;
44428;SDS011;30134;47.866;-4.222;2023-09-19T06:06:38;7.13;;;2.40;;
44428;SDS011;30134;47.866;-4.222;2023-09-19T06:09:08;9.82;;;3.15;;
44428;SDS011;30134;47.866;-4.222;2023-09-19T06:11:34;6.90;;;2.55;;
44428;SDS011;30134;47.866;-4.222;2023-09-19T06:14:01;8.77;;;2.67;;
44428;SDS011;30134;47.866;-4.222;2023-09-19T06:16:28;8.02;;;2.58;;
44428;SDS011;30134;47.866;-4.222;2023-09-19T06:18:56;6.75;;;2.75;;
44428;SDS011;30134;47.866;-4.222;2023-09-19T06:21:24;5.68;;;2.40;;
44428;SDS011;30134;47.866;-4.222;2023-09-19T06:23:52;7.45;;;2.60;;
44428;SDS011;30134;47.866;-4.222;2023-09-19T06:26:18;8.35;;;3.08;;
44428;SDS011;30134;47.866;-4.222;2023-09-19T06:28:44;7.47;;;2.90;;
44428;SDS011;30134;47.866;-4.222;2023-09-19T06:31:10;7.15;;;2.47;;
44428;SDS011;30134;47.866;-4.222;2023-09-19T06:33:37;4.93;;;2.22;;
44428;SDS011;30134;47.866;-4.222;2023-09-19T06:36:07;7.40;;;2.70;;
44428;SDS011;30134;47.866;-4.222;2023-09-19T06:38:33;6.97;;;2.20;;
44428;SDS011;30134;47.866;-4.222;2023-09-19T06:41:01;10.35;;;2.92;;
44428;SDS011;30134;47.866;-4.222;2023-09-19T06:43:32;7.18;;;2.47;;
44428;SDS011;30134;47.866;-4.222;2023-09-19T06:46:02;7.20;;;2.38;;
44428;SDS011;30134;47.866;-4.222;2023-09-19T06:48:29;8.15;;;2.47;;
44428;SDS011;30134;47.866;-4.222;2023-09-19T06:50:56;7.85;;;2.25;;
44428;SDS011;30134;47.866;-4.222;2023-09-19T06:53:23;6.18;;;2.17;;
44428;SDS011;30134;47.866;-4.222;2023-09-19T06:55:50;5.07;;;2.17;;
44428;SDS011;30134;47.866;-4.222;2023-09-19T06:58:16;8.68;;;2.63;;
44428;SDS011;30134;47.866;-4.222;2023-09-19T07:00:42;7.32;;;2.40;;
44428;SDS011;30134;47.866;-4.222;2023-09-19T07:03:09;7.18;;;2.38;;
44428;SDS011;30134;47.866;-4.222;2023-09-19T07:05:38;6.63;;;2.33;;
44428;SDS011;30134;47.866;-4.222;2023-09-19T07:08:06;9.13;;;2.80;;
44428;SDS011;30134;47.866;-4.222;2023-09-19T07:10:34;6.18;;;2.17;;
44428;SDS011;30134;47.866;-4.222;2023-09-19T07:13:02;7.22;;;2.05;;
44428;SDS011;30134;47.866;-4.222;2023-09-19T07:15:36;5.85;;;2.35;;
44428;SDS011;30134;47.866;-4.222;2023-09-19T07:18:11;6.15;;;2.20;;
44428;SDS011;30134;47.866;-4.222;2023-09-19T07:20:40;4.68;;;2.17;;
44428;SDS011;30134;47.866;-4.222;2023-09-19T07:23:13;6.93;;;2.35;;
44428;SDS011;30134;47.866;-4.222;2023-09-19T07:25:40;6.55;;;2.17;;
44428;SDS011;30134;47.866;-4.222;2023-09-19T07:28:06;8.57;;;2.55;;
44428;SDS011;30134;47.866;-4.222;2023-09-19T07:30:32;7.63;;;2.35;;
44428;SDS011;30134;47.866;-4.222;2023-09-19T07:33:06;6.50;;;2.30;;
44428;SDS011;30134;47.866;-4.222;2023-09-19T07:35:36;6.45;;;2.50;;
44428;SDS011;30134;47.866;-4.222;2023-09-19T07:38:05;8.30;;;2.40;;
44428;SDS011;30134;47.866;-4.222;2023-09-19T07:40:32;6.45;;;2.28;;
44428;SDS011;30134;47.866;-4.222;2023-09-19T07:42:59;8.30;;;2.30;;
44428;SDS011;30134;47.866;-4.222;2023-09-19T07:45:27;7.28;;;2.85;;
44428;SDS011;30134;47.866;-4.222;2023-09-19T07:47:56;8.70;;;2.47;;
44428;SDS011;30134;47.866;-4.222;2023-09-19T07:50:22;6.18;;;2.50;;
44428;SDS011;30134;47.866;-4.222;2023-09-19T07:52:49;7.47;;;2.65;;
44428;SDS011;30134;47.866;-4.222;2023-09-19T07:55:20;5.97;;;2.47;;
44428;SDS011;30134;47.866;-4.222;2023-09-19T07:57:50;6.13;;;2.10;;
44428;SDS011;30134;47.866;-4.222;2023-09-19T08:00:19;7.78;;;2.75;;
44428;SDS011;30134;47.866;-4.222;2023-09-19T08:02:45;5.10;;;2.50;;
44428;SDS011;30134;47.866;-4.222;2023-09-19T08:05:13;7.47;;;2.60;;
44428;SDS011;30134;47.866;-4.222;2023-09-19T08:07:43;8.60;;;2.45;;
44428;SDS011;30134;47.866;-4.222;2023-09-19T08:12:41;9.63;;;2.80;;
44428;SDS011;30134;47.866;-4.222;2023-09-19T08:15:18;5.68;;;2.30;;
44428;SDS011;30134;47.866;-4.222;2023-09-19T08:17:45;7.20;;;2.50;;
44428;SDS011;30134;47.866;-4.222;2023-09-19T08:20:12;11.57;;;2.90;;
44428;SDS011;30134;47.866;-4.222;2023-09-19T08:22:52;7.63;;;2.50;;
44428;SDS011;30134;47.866;-4.222;2023-09-19T08:25:22;9.73;;;3.03;;
44428;SDS011;30134;47.866;-4.222;2023-09-19T08:27:49;6.78;;;2.63;;
44428;SDS011;30134;47.866;-4.222;2023-09-19T08:30:16;5.38;;;2.58;;
44428;SDS011;30134;47.866;-4.222;2023-09-19T08:33:01;8.30;;;2.55;;
44428;SDS011;30134;47.866;-4.222;2023-09-19T08:35:29;7.78;;;2.70;;
44428;SDS011;30134;47.866;-4.222;2023-09-19T08:37:55;8.55;;;2.83;;
44428;SDS011;30134;47.866;-4.222;2023-09-19T08:40:21;9.25;;;2.88;;
44428;SDS011;30134;47.866;-4.222;2023-09-19T08:45:21;8.20;;;2.67;;
44428;SDS011;30134;47.866;-4.222;2023-09-19T08:50:52;9.38;;;2.90;;
44428;SDS011;30134;47.866;-4.222;2023-09-19T08:53:41;9.02;;;3.03;;
44428;SDS011;30134;47.866;-4.222;2023-09-19T08:56:16;8.73;;;2.90;;
44428;SDS011;30134;47.866;-4.222;2023-09-19T08:58:51;10.23;;;2.80;;
44428;SDS011;30134;47.866;-4.222;2023-09-19T09:01:27;11.65;;;3.30;;
44428;SDS011;30134;47.866;-4.222;2023-09-19T09:03:54;8.18;;;2.92;;
44428;SDS011;30134;47.866;-4.222;2023-09-19T09:06:22;8.38;;;3.08;;
44428;SDS011;30134;47.866;-4.222;2023-09-19T09:08:50;12.48;;;3.30;;
44428;SDS011;30134;47.866;-4.222;2023-09-19T09:11:20;12.00;;;3.25;;
44428;SDS011;30134;47.866;-4.222;2023-09-19T09:13:46;11.00;;;3.08;;
44428;SDS011;30134;47.866;-4.222;2023-09-19T09:16:13;8.73;;;3.47;;
44428;SDS011;30134;47.866;-4.222;2023-09-19T09:18:43;8.50;;;3.05;;
44428;SDS011;30134;47.866;-4.222;2023-09-19T09:21:17;12.48;;;3.53;;
44428;SDS011;30134;47.866;-4.222;2023-09-19T09:23:46;12.27;;;3.33;;
44428;SDS011;30134;47.866;-4.222;2023-09-19T09:29:20;13.27;;;4.15;;
44428;SDS011;30134;47.866;-4.222;2023-09-19T09:32:17;22.00;;;5.25;;
44428;SDS011;30134;47.866;-4.222;2023-09-19T09:34:49;27.10;;;6.20;;
44428;SDS011;30134;47.866;-4.222;2023-09-19T09:37:23;24.00;;;6.20;;
44428;SDS011;30134;47.866;-4.222;2023-09-19T09:39:55;22.63;;;5.78;;
44428;SDS011;30134;47.866;-4.222;2023-09-19T09:42:42;25.33;;;6.35;;
44428;SDS011;30134;47.866;-4.222;2023-09-19T09:45:12;22.48;;;5.70;;
44428;SDS011;30134;47.866;-4.222;2023-09-19T09:48:02;24.10;;;6.38;;
44428;SDS011;30134;47.866;-4.222;2023-09-19T09:50:39;21.55;;;5.55;;
44428;SDS011;30134;47.866;-4.222;2023-09-19T09:53:23;27.42;;;6.60;;
44428;SDS011;30134;47.866;-4.222;2023-09-19T09:58:36;25.48;;;7.10;;
44428;SDS011;30134;47.866;-4.222;2023-09-19T10:01:14;27.52;;;6.20;;
44428;SDS011;30134;47.866;-4.222;2023-09-19T10:03:42;28.27;;;7.07;;
44428;SDS011;30134;47.866;-4.222;2023-09-19T10:06:13;27.13;;;6.85;;
44428;SDS011;30134;47.866;-4.222;2023-09-19T10:09:08;30.83;;;7.63;;
44428;SDS011;30134;47.866;-4.222;2023-09-19T10:11:35;26.70;;;6.72;;
44428;SDS011;30134;47.866;-4.222;2023-09-19T10:14:17;30.52;;;7.57;;
44428;SDS011;30134;47.866;-4.222;2023-09-19T10:16:49;30.15;;;7.22;;
44428;SDS011;30134;47.866;-4.222;2023-09-19T10:19:26;21.58;;;6.03;;
44428;SDS011;30134;47.866;-4.222;2023-09-19T10:21:59;26.38;;;7.00;;
44428;SDS011;30134;47.866;-4.222;2023-09-19T10:24:27;32.35;;;7.25;;
44428;SDS011;30134;47.866;-4.222;2023-09-19T10:26:53;27.17;;;7.95;;
44428;SDS011;30134;47.866;-4.222;2023-09-19T10:29:22;26.42;;;6.90;;
44428;SDS011;30134;47.866;-4.222;2023-09-19T10:31:54;21.27;;;6.95;;
44428;SDS011;30134;47.866;-4.222;2023-09-19T10:34:23;26.98;;;7.28;;
44428;SDS011;30134;47.866;-4.222;2023-09-19T10:36:51;23.55;;;6.38;;
44428;SDS011;30134;47.866;-4.222;2023-09-19T10:39:19;26.33;;;6.70;;
44428;SDS011;30134;47.866;-4.222;2023-09-19T10:41:52;36.67;;;7.22;;
44428;SDS011;30134;47.866;-4.222;2023-09-19T10:44:23;28.80;;;6.68;;
44428;SDS011;30134;47.866;-4.222;2023-09-19T10:46:51;30.65;;;7.18;;
44428;SDS011;30134;47.866;-4.222;2023-09-19T10:49:21;21.77;;;6.30;;
44428;SDS011;30134;47.866;-4.222;2023-09-19T10:51:50;25.33;;;6.85;;
44428;SDS011;30134;47.866;-4.222;2023-09-19T10:54:23;26.92;;;6.53;;
44428;SDS011;30134;47.866;-4.222;2023-09-19T10:56:59;22.58;;;6.57;;
44428;SDS011;30134;47.866;-4.222;2023-09-19T10:59:26;30.38;;;7.10;;
44428;SDS011;30134;47.866;-4.222;2023-09-19T11:02:00;33.08;;;7.57;;
44428;SDS011;30134;47.866;-4.222;2023-09-19T11:04:44;29.08;;;7.43;;
44428;SDS011;30134;47.866;-4.222;2023-09-19T11:07:13;26.92;;;7.15;;
44428;SDS011;30134;47.866;-4.222;2023-09-19T11:09:44;30.30;;;7.05;;
44428;SDS011;30134;47.866;-4.222;2023-09-19T11:15:01;32.88;;;8.73;;
44428;SDS011;30134;47.866;-4.222;2023-09-19T11:17:36;36.67;;;9.02;;
44428;SDS011;30134;47.866;-4.222;2023-09-19T11:30:37;30.58;;;7.70;;
44428;SDS011;30134;47.866;-4.222;2023-09-19T11:36:06;30.38;;;7.85;;
44428;SDS011;30134;47.866;-4.222;2023-09-19T11:43:48;23.88;;;7.47;;
44428;SDS011;30134;47.866;-4.222;2023-09-19T11:46:16;25.98;;;7.32;;
44428;SDS011;30134;47.866;-4.222;2023-09-19T11:48:49;28.27;;;7.57;;
44428;SDS011;30134;47.866;-4.222;2023-09-19T11:53:51;26.88;;;6.97;;
44428;SDS011;30134;47.866;-4.222;2023-09-19T11:56:27;24.67;;;6.95;;
44428;SDS011;30134;47.866;-4.222;2023-09-19T11:58:55;24.60;;;7.40;;
44428;SDS011;30134;47.866;-4.222;2023-09-19T12:06:23;19.58;;;6.95;;
44428;SDS011;30134;47.866;-4.222;2023-09-19T12:08:52;22.38;;;6.95;;
44428;SDS011;30134;47.866;-4.222;2023-09-19T12:11:22;22.73;;;6.30;;
44428;SDS011;30134;47.866;-4.222;2023-09-19T12:13:50;21.63;;;6.88;;
44428;SDS011;30134;47.866;-4.222;2023-09-19T12:16:19;21.02;;;6.40;;
44428;SDS011;30134;47.866;-4.222;2023-09-19T12:18:49;20.77;;;6.38;;
44428;SDS011;30134;47.866;-4.222;2023-09-19T12:21:26;18.90;;;6.25;;
44428;SDS011;30134;47.866;-4.222;2023-09-19T12:23:57;22.08;;;6.45;;
44428;SDS011;30134;47.866;-4.222;2023-09-19T12:26:26;18.60;;;6.78;;
44428;SDS011;30134;47.866;-4.222;2023-09-19T12:28:54;19.00;;;6.63;;
44428;SDS011;30134;47.866;-4.222;2023-09-19T12:31:21;17.05;;;5.93;;
44428;SDS011;30134;47.866;-4.222;2023-09-19T12:33:52;17.50;;;5.70;;
44428;SDS011;30134;47.866;-4.222;2023-09-19T12:36:21;18.90;;;6.30;;
44428;SDS011;30134;47.866;-4.222;2023-09-19T12:38:55;19.02;;;6.15;;
44428;SDS011;30134;47.866;-4.222;2023-09-19T12:41:24;18.08;;;6.28;;
44428;SDS011;30134;47.866;-4.222;2023-09-19T12:43:52;22.02;;;6.20;;
44428;SDS011;30134;47.866;-4.222;2023-09-19T12:46:20;14.32;;;5.53;;
44428;SDS011;30134;47.866;-4.222;2023-09-19T12:49:14;15.75;;;5.85;;
44428;SDS011;30134;47.866;-4.222;2023-09-19T12:51:46;14.35;;;5.45;;
44428;SDS011;30134;47.866;-4.222;2023-09-19T12:54:13;12.55;;;5.38;;
44428;SDS011;30134;47.866;-4.222;2023-09-19T12:56:43;17.42;;;6.10;;
44428;SDS011;30134;47.866;-4.222;2023-09-19T12:59:11;18.05;;;6.47;;
44428;SDS011;30134;47.866;-4.222;2023-09-19T13:01:39;17.13;;;6.10;;
44428;SDS011;30134;47.866;-4.222;2023-09-19T13:06:55;15.18;;;5.93;;
44428;SDS011;30134;47.866;-4.222;2023-09-19T13:09:26;14.35;;;5.75;;
44428;SDS011;30134;47.866;-4.222;2023-09-19T13:12:00;13.40;;;5.80;;
44428;SDS011;30134;47.866;-4.222;2023-09-19T13:14:28;15.15;;;6.03;;
44428;SDS011;30134;47.866;-4.222;2023-09-19T13:17:08;16.35;;;5.65;;
44428;SDS011;30134;47.866;-4.222;2023-09-19T13:19:50;15.45;;;5.32;;
44428;SDS011;30134;47.866;-4.222;2023-09-19T13:22:38;17.42;;;5.97;;
44428;SDS011;30134;47.866;-4.222;2023-09-19T13:25:10;15.55;;;5.60;;
44428;SDS011;30134;47.866;-4.222;2023-09-19T13:27:44;16.45;;;5.75;;
44428;SDS011;30134;47.866;-4.222;2023-09-19T13:30:25;15.35;;;5.45;;
44428;SDS011;30134;47.866;-4.222;2023-09-19T13:33:08;16.88;;;5.72;;
44428;SDS011;30134;47.866;-4.222;2023-09-19T13:35:36;13.45;;;5.40;;
44428;SDS011;30134;47.866;-4.222;2023-09-19T13:38:05;14.10;;;5.78;;
44428;SDS011;30134;47.866;-4.222;2023-09-19T13:40:34;15.77;;;6.20;;
44428;SDS011;30134;47.866;-4.222;2023-09-19T13:43:01;20.35;;;5.97;;
44428;SDS011;30134;47.866;-4.222;2023-09-19T13:45:26;16.23;;;6.20;;
44428;SDS011;30134;47.866;-4.222;2023-09-19T13:47:55;12.77;;;5.72;;
44428;SDS011;30134;47.866;-4.222;2023-09-19T13:50:23;13.80;;;5.88;;
44428;SDS011;30134;47.866;-4.222;2023-09-19T13:52:50;14.50;;;5.82;;
44428;SDS011;30134;47.866;-4.222;2023-09-19T13:55:18;10.80;;;5.30;;
44428;SDS011;30134;47.866;-4.222;2023-09-19T13:57:47;14.68;;;5.53;;
44428;SDS011;30134;47.866;-4.222;2023-09-19T14:00:19;13.75;;;5.85;;
44428;SDS011;30134;47.866;-4.222;2023-09-19T14:02:47;15.63;;;6.05;;
44428;SDS011;30134;47.866;-4.222;2023-09-19T14:05:14;16.25;;;4.95;;
44428;SDS011;30134;47.866;-4.222;2023-09-19T14:07:42;13.50;;;5.30;;
44428;SDS011;30134;47.866;-4.222;2023-09-19T14:10:09;14.27;;;5.80;;
44428;SDS011;30134;47.866;-4.222;2023-09-19T14:12:36;14.55;;;5.22;;
44428;SDS011;30134;47.866;-4.222;2023-09-19T14:15:06;13.30;;;5.35;;
44428;SDS011;30134;47.866;-4.222;2023-09-19T14:17:33;12.60;;;5.10;;
44428;SDS011;30134;47.866;-4.222;2023-09-19T14:20:00;13.75;;;5.55;;
44428;SDS011;30134;47.866;-4.222;2023-09-19T14:22:25;14.27;;;5.55;;
44428;SDS011;30134;47.866;-4.222;2023-09-19T14:24:51;13.57;;;5.32;;
44428;SDS011;30134;47.866;-4.222;2023-09-19T14:27:18;19.30;;;6.35;;
44428;SDS011;30134;47.866;-4.222;2023-09-19T14:29:44;14.30;;;5.78;;
44428;SDS011;30134;47.866;-4.222;2023-09-19T14:32:10;11.52;;;5.15;;
44428;SDS011;30134;47.866;-4.222;2023-09-19T14:34:36;12.40;;;5.15;;
44428;SDS011;30134;47.866;-4.222;2023-09-19T14:37:07;13.15;;;5.53;;
44428;SDS011;30134;47.866;-4.222;2023-09-19T14:39:33;14.02;;;5.88;;
44428;SDS011;30134;47.866;-4.222;2023-09-19T14:41:59;15.20;;;5.38;;
44428;SDS011;30134;47.866;-4.222;2023-09-19T14:44:26;19.08;;;6.40;;
44428;SDS011;30134;47.866;-4.222;2023-09-19T14:46:53;25.58;;;6.90;;
44428;SDS011;30134;47.866;-4.222;2023-09-19T14:49:20;14.75;;;6.03;;
44428;SDS011;30134;47.866;-4.222;2023-09-19T14:51:46;20.65;;;5.70;;
44428;SDS011;30134;47.866;-4.222;2023-09-19T14:54:17;22.13;;;6.63;;
44428;SDS011;30134;47.866;-4.222;2023-09-19T14:56:44;21.70;;;6.25;;
44428;SDS011;30134;47.866;-4.222;2023-09-19T14:59:10;20.80;;;5.80;;
44428;SDS011;30134;47.866;-4.222;2023-09-19T15:01:36;23.60;;;5.95;;
44428;SDS011;30134;47.866;-4.222;2023-09-19T15:04:04;27.40;;;6.57;;
44428;SDS011;30134;47.866;-4.222;2023-09-19T15:06:30;20.60;;;6.18;;
44428;SDS011;30134;47.866;-4.222;2023-09-19T15:08:56;20.25;;;5.57;;
44428;SDS011;30134;47.866;-4.222;2023-09-19T15:11:23;20.83;;;5.43;;
44428;SDS011;30134;47.866;-4.222;2023-09-19T15:13:51;17.02;;;5.55;;
44428;SDS011;30134;47.866;-4.222;2023-09-19T15:16:19;15.15;;;5.32;;
44428;SDS011;30134;47.866;-4.222;2023-09-19T15:18:45;16.10;;;4.97;;
44428;SDS011;30134;47.866;-4.222;2023-09-19T15:21:14;22.25;;;5.82;;
44428;SDS011;30134;47.866;-4.222;2023-09-19T15:23:41;19.17;;;5.90;;
44428;SDS011;30134;47.866;-4.222;2023-09-19T15:26:09;17.10;;;4.95;;
44428;SDS011;30134;47.866;-4.222;2023-09-19T15:28:38;20.15;;;5.00;;
44428;SDS011;30134;47.866;-4.222;2023-09-19T15:31:05;16.60;;;5.18;;
44428;SDS011;30134;47.866;-4.222;2023-09-19T15:33:34;16.98;;;5.40;;
44428;SDS011;30134;47.866;-4.222;2023-09-19T15:36:01;13.75;;;4.72;;
44428;SDS011;30134;47.866;-4.222;2023-09-19T15:43:57;16.40;;;4.70;;
44428;SDS011;30134;47.866;-4.222;2023-09-19T15:46:27;12.65;;;5.22;;
44428;SDS011;30134;47.866;-4.222;2023-09-19T15:48:54;11.45;;;4.70;;
44428;SDS011;30134;47.866;-4.222;2023-09-19T15:51:21;16.95;;;5.60;;